createdAt,value
2023-06-07T00:00:22.455Z,18.00
2023-06-07T00:02:49.778Z,18.00
2023-06-07T00:05:17.184Z,18.00
2023-06-07T00:07:44.290Z,17.90
2023-06-07T00:10:11.599Z,17.90
2023-06-07T00:12:38.588Z,17.80
2023-06-07T00:15:07.028Z,17.80
2023-06-07T00:17:34.094Z,17.70
2023-06-07T00:20:02.201Z,17.70
2023-06-07T00:22:31.535Z,17.60
2023-06-07T00:24:58.569Z,17.60
2023-06-07T00:27:26.500Z,17.50
2023-06-07T00:29:53.489Z,17.50
2023-06-07T00:32:20.454Z,17.50
2023-06-07T00:34:47.526Z,17.50
2023-06-07T00:37:14.479Z,17.40
2023-06-07T00:39:42.147Z,17.40
2023-06-07T00:42:09.133Z,17.30
2023-06-07T00:44:36.126Z,17.30
2023-06-07T00:47:03.650Z,17.30
2023-06-07T00:49:31.348Z,17.20
2023-06-07T00:51:58.897Z,17.20
2023-06-07T00:54:25.793Z,17.30
2023-06-07T00:56:52.868Z,17.20
2023-06-07T00:59:23.323Z,17.20
2023-06-07T01:01:54.509Z,17.20
2023-06-07T01:04:22.375Z,17.20
2023-06-07T01:06:50.426Z,17.20
2023-06-07T01:09:18.631Z,17.20
2023-06-07T01:11:49.500Z,17.10
2023-06-07T01:14:17.197Z,17.20
2023-06-07T01:16:46.061Z,17.10
2023-06-07T01:19:19.138Z,17.20
2023-06-07T01:21:47.609Z,17.20
2023-06-07T01:24:14.702Z,17.20
2023-06-07T01:26:41.644Z,17.20
2023-06-07T01:29:08.733Z,17.20
2023-06-07T01:31:37.436Z,17.20
2023-06-07T01:34:05.997Z,17.20
2023-06-07T01:36:33.204Z,17.00
2023-06-07T01:39:02.310Z,17.10
2023-06-07T01:41:31.213Z,17.00
2023-06-07T01:43:59.346Z,17.00
2023-06-07T01:46:30.831Z,16.90
2023-06-07T01:48:58.662Z,17.00
2023-06-07T01:51:25.672Z,16.90
2023-06-07T01:53:52.711Z,16.90
2023-06-07T01:56:36.308Z,16.90
2023-06-07T01:59:31.548Z,16.90
2023-06-07T02:02:07.449Z,16.90
2023-06-07T02:04:43.003Z,16.90
2023-06-07T02:07:18.601Z,16.90
2023-06-07T02:09:48.348Z,16.90
2023-06-07T02:12:15.760Z,16.90
2023-06-07T02:14:44.452Z,16.80
2023-06-07T02:17:11.384Z,16.90
2023-06-07T02:19:38.392Z,16.80
2023-06-07T02:22:07.104Z,16.90
2023-06-07T02:24:34.560Z,16.80
2023-06-07T02:27:01.769Z,16.80
2023-06-07T02:29:28.738Z,16.80
2023-06-07T02:31:59.142Z,16.80
2023-06-07T02:34:26.049Z,16.80
2023-06-07T02:36:53.186Z,16.80
2023-06-07T02:39:20.078Z,16.80
2023-06-07T02:41:46.943Z,16.80
2023-06-07T02:44:13.861Z,16.80
2023-06-07T02:46:41.347Z,16.80
2023-06-07T02:49:08.541Z,16.80
2023-06-07T02:51:38.550Z,16.80
2023-06-07T02:54:05.668Z,16.80
2023-06-07T02:56:33.820Z,16.70
2023-06-07T02:59:00.690Z,16.80
2023-06-07T03:01:28.685Z,16.80
2023-06-07T03:03:58.228Z,16.80
2023-06-07T03:06:25.133Z,16.80
2023-06-07T03:08:52.087Z,16.80
2023-06-07T03:11:18.975Z,16.80
2023-06-07T03:13:45.913Z,16.70
2023-06-07T03:16:13.011Z,16.70
2023-06-07T03:18:39.991Z,16.70
2023-06-07T03:21:07.398Z,16.70
2023-06-07T03:23:34.261Z,16.70
2023-06-07T03:26:01.250Z,16.70
2023-06-07T03:28:28.410Z,16.60
2023-06-07T03:30:55.354Z,16.70
2023-06-07T03:33:22.273Z,16.70
2023-06-07T03:35:49.183Z,16.70
2023-06-07T03:38:16.044Z,16.70
2023-06-07T03:40:43.296Z,16.70
2023-06-07T03:43:10.235Z,16.80
2023-06-07T03:45:37.288Z,16.70
2023-06-07T03:48:04.814Z,16.80
2023-06-07T03:50:31.721Z,16.80
2023-06-07T03:52:58.724Z,16.80
2023-06-07T03:55:25.788Z,16.80
2023-06-07T03:57:52.956Z,16.80
2023-06-07T04:00:20.073Z,16.90
2023-06-07T04:02:47.268Z,16.90
2023-06-07T04:05:14.272Z,17.00
2023-06-07T04:07:41.902Z,17.00
2023-06-07T04:10:09.124Z,17.00
2023-06-07T04:12:36.371Z,17.10
2023-06-07T04:15:03.744Z,17.10
2023-06-07T04:17:31.075Z,17.10
2023-06-07T04:19:58.176Z,17.10
2023-06-07T04:22:25.915Z,17.20
2023-06-07T04:24:53.130Z,17.30
2023-06-07T04:27:20.242Z,17.30
2023-06-07T04:29:50.172Z,17.40
2023-06-07T04:32:20.165Z,17.40
2023-06-07T04:34:48.074Z,17.50
2023-06-07T04:37:15.497Z,17.50
2023-06-07T04:39:42.437Z,17.50
2023-06-07T04:42:10.636Z,17.50
2023-06-07T04:44:38.367Z,17.40
2023-06-07T04:47:09.934Z,17.50
2023-06-07T04:49:40.100Z,17.50
2023-06-07T04:52:07.697Z,17.60
2023-06-07T04:54:37.498Z,17.70
2023-06-07T04:57:05.950Z,17.70
2023-06-07T04:59:36.210Z,17.80
2023-06-07T05:02:03.574Z,17.90
2023-06-07T05:04:32.205Z,17.90
2023-06-07T05:06:59.683Z,18.10
2023-06-07T05:09:29.568Z,18.10
2023-06-07T05:11:57.955Z,18.20
2023-06-07T05:14:24.996Z,18.40
2023-06-07T05:16:52.298Z,18.40
2023-06-07T05:19:19.965Z,18.40
2023-06-07T05:21:47.118Z,18.50
2023-06-07T05:24:16.549Z,18.60
2023-06-07T05:26:44.753Z,18.60
2023-06-07T05:29:11.844Z,18.70
2023-06-07T05:31:39.029Z,18.70
2023-06-07T05:34:06.005Z,18.90
2023-06-07T05:36:37.190Z,18.90
2023-06-07T05:39:04.321Z,19.00
2023-06-07T05:41:31.488Z,19.00
2023-06-07T05:43:58.856Z,19.10
2023-06-07T05:46:25.871Z,19.10
2023-06-07T05:48:52.968Z,19.20
2023-06-07T05:51:23.620Z,19.30
2023-06-07T05:53:50.454Z,19.30
2023-06-07T05:56:18.264Z,19.30
2023-06-07T05:58:46.062Z,19.40
2023-06-07T06:01:14.556Z,19.50
2023-06-07T06:03:41.659Z,19.50
2023-06-07T06:06:16.453Z,19.50
2023-06-07T06:08:44.926Z,19.60
2023-06-07T06:11:13.684Z,19.60
2023-06-07T06:13:41.857Z,19.60
2023-06-07T06:16:12.081Z,19.70
2023-06-07T06:18:41.659Z,19.70
2023-06-07T06:21:09.660Z,19.80
2023-06-07T06:23:37.116Z,19.80
2023-06-07T06:26:04.186Z,19.90
2023-06-07T06:28:31.641Z,20.00
2023-06-07T06:30:58.885Z,20.10
2023-06-07T06:33:26.302Z,20.20
2023-06-07T06:35:54.528Z,20.30
2023-06-07T06:38:21.375Z,20.40
2023-06-07T06:40:48.278Z,20.50
2023-06-07T06:43:15.267Z,20.60
2023-06-07T06:45:42.193Z,20.70
2023-06-07T06:48:09.300Z,20.80
2023-06-07T06:50:37.222Z,21.00
2023-06-07T06:53:04.351Z,21.10
2023-06-07T06:55:32.074Z,21.20
2023-06-07T06:57:59.171Z,21.30
2023-06-07T07:00:26.274Z,21.40
2023-06-07T07:02:53.440Z,21.50
2023-06-07T07:05:20.609Z,21.60
2023-06-07T07:07:47.990Z,21.80
2023-06-07T07:10:18.018Z,21.90
2023-06-07T07:12:45.072Z,22.00
2023-06-07T07:15:12.041Z,22.10
2023-06-07T07:17:49.999Z,22.30
2023-06-07T07:20:18.676Z,22.40
2023-06-07T07:22:47.536Z,22.50
2023-06-07T07:25:16.299Z,22.60
2023-06-07T07:27:43.133Z,22.70
2023-06-07T07:30:11.375Z,22.80
2023-06-07T07:32:39.363Z,22.90
2023-06-07T07:35:06.746Z,23.00
2023-06-07T07:37:34.037Z,23.20
2023-06-07T07:40:01.131Z,23.30
2023-06-07T07:42:28.606Z,23.40
2023-06-07T07:44:55.933Z,23.60
2023-06-07T07:47:23.225Z,23.60
2023-06-07T07:49:50.224Z,23.80
2023-06-07T07:52:17.183Z,24.00
2023-06-07T07:54:44.490Z,24.00
2023-06-07T07:57:11.854Z,24.20
2023-06-07T07:59:39.305Z,24.30
2023-06-07T08:02:06.293Z,24.40
2023-06-07T08:04:33.254Z,24.60
2023-06-07T08:07:00.153Z,24.70
2023-06-07T08:09:27.218Z,24.80
2023-06-07T08:11:54.247Z,24.80
2023-06-07T08:14:21.370Z,25.00
2023-06-07T08:16:49.410Z,25.00
2023-06-07T08:19:16.423Z,25.10
2023-06-07T08:21:45.081Z,25.30
2023-06-07T08:24:12.763Z,25.90
2023-06-07T08:26:39.875Z,26.80
2023-06-07T08:29:06.764Z,27.70
2023-06-07T08:31:33.655Z,28.50
2023-06-07T08:34:01.002Z,29.10
2023-06-07T08:36:28.007Z,29.50
2023-06-07T08:38:54.869Z,29.80
2023-06-07T08:41:22.568Z,30.10
2023-06-07T08:43:50.798Z,30.40
2023-06-07T08:46:18.683Z,30.20
2023-06-07T08:48:48.730Z,29.90
2023-06-07T08:51:17.851Z,29.40
2023-06-07T08:53:55.717Z,29.60
2023-06-07T08:56:25.543Z,29.80
2023-06-07T08:58:52.788Z,29.90
2023-06-07T09:01:22.269Z,29.60
2023-06-07T09:03:56.330Z,29.70
2023-06-07T09:06:23.743Z,30.30
2023-06-07T09:08:51.066Z,30.50
2023-06-07T09:11:17.977Z,30.10
2023-06-07T09:13:45.474Z,29.40
2023-06-07T09:16:13.086Z,29.20
2023-06-07T09:18:45.171Z,29.30
2023-06-07T09:21:31.285Z,29.20
2023-06-07T09:24:01.847Z,28.80
2023-06-07T09:26:39.604Z,28.60
2023-06-07T09:29:11.587Z,28.40
2023-06-07T09:31:39.208Z,28.30
2023-06-07T09:34:28.322Z,28.20
2023-06-07T09:37:00.290Z,28.00
2023-06-07T09:39:30.471Z,27.70
2023-06-07T09:41:58.841Z,27.60
2023-06-07T09:44:27.195Z,27.80
2023-06-07T09:46:55.239Z,27.90
2023-06-07T09:49:29.674Z,27.90
2023-06-07T09:51:56.975Z,27.80
2023-06-07T09:54:40.520Z,27.50
2023-06-07T09:57:10.095Z,27.30
2023-06-07T09:59:38.974Z,27.20
2023-06-07T10:02:26.054Z,27.00
2023-06-07T10:04:57.349Z,26.90
2023-06-07T10:07:32.428Z,26.90
2023-06-07T10:10:00.408Z,27.10
2023-06-07T10:12:33.365Z,27.30
2023-06-07T10:15:04.786Z,27.60
2023-06-07T10:17:51.516Z,27.90
2023-06-07T10:20:32.202Z,28.30
2023-06-07T10:23:07.837Z,28.30
2023-06-07T10:25:42.891Z,28.60
2023-06-07T10:28:20.528Z,29.10
2023-06-07T10:30:54.518Z,29.20
2023-06-07T10:33:24.442Z,29.10
2023-06-07T10:35:52.382Z,28.90
2023-06-07T10:38:19.940Z,28.90
2023-06-07T10:40:47.112Z,29.30
2023-06-07T10:43:14.120Z,29.80
2023-06-07T10:45:41.144Z,29.90
2023-06-07T10:48:35.328Z,29.90
2023-06-07T10:51:02.385Z,30.30
2023-06-07T10:53:52.373Z,30.30
2023-06-07T10:56:35.157Z,30.20
2023-06-07T10:59:14.474Z,29.80
2023-06-07T11:01:42.640Z,29.50
2023-06-07T11:04:32.917Z,29.60
2023-06-07T11:07:20.142Z,29.60
2023-06-07T11:09:49.351Z,29.20
2023-06-07T11:12:55.044Z,29.00
2023-06-07T11:15:26.067Z,28.70
2023-06-07T11:18:00.791Z,28.50
2023-06-07T11:20:39.666Z,28.30
2023-06-07T11:23:28.648Z,28.30
2023-06-07T11:26:05.707Z,28.30
2023-06-07T11:28:33.646Z,28.40
2023-06-07T11:31:02.166Z,28.30
2023-06-07T11:33:30.226Z,28.00
2023-06-07T11:35:57.910Z,27.90
2023-06-07T11:38:27.940Z,27.90
2023-06-07T11:40:55.185Z,28.00
2023-06-07T11:43:25.160Z,28.30
2023-06-07T11:45:55.832Z,28.40
2023-06-07T11:48:27.524Z,28.50
2023-06-07T11:50:54.896Z,28.50
2023-06-07T11:53:22.836Z,28.40
2023-06-07T11:55:50.148Z,28.40
2023-06-07T11:58:17.159Z,28.40
2023-06-07T12:00:45.345Z,28.40
2023-06-07T12:03:12.857Z,28.30
2023-06-07T12:05:40.027Z,28.10
2023-06-07T12:08:11.111Z,28.10
2023-06-07T12:10:38.161Z,28.70
2023-06-07T12:13:10.709Z,29.60
2023-06-07T12:15:53.453Z,30.50
2023-06-07T12:18:24.120Z,31.40
2023-06-07T12:21:11.969Z,31.80
2023-06-07T12:23:46.026Z,31.80
2023-06-07T12:26:17.541Z,32.00
2023-06-07T12:28:45.141Z,31.80
2023-06-07T12:31:18.971Z,31.60
2023-06-07T12:33:58.340Z,31.20
2023-06-07T12:36:30.068Z,31.10
2023-06-07T12:39:00.728Z,30.80
2023-06-07T12:41:29.480Z,30.60
2023-06-07T12:43:58.720Z,30.30
2023-06-07T12:46:26.196Z,30.10
2023-06-07T12:48:53.098Z,29.80
2023-06-07T12:51:20.176Z,29.50
2023-06-07T12:53:47.681Z,29.40
2023-06-07T12:56:14.928Z,29.20
2023-06-07T12:58:41.770Z,29.10
2023-06-07T13:01:08.770Z,29.20
2023-06-07T13:03:36.037Z,29.10
2023-06-07T13:06:03.759Z,29.20
2023-06-07T13:08:30.625Z,28.90
2023-06-07T13:10:57.875Z,28.10
2023-06-07T13:13:24.889Z,27.20
2023-06-07T13:15:51.926Z,26.00
2023-06-07T13:18:19.223Z,24.60
2023-06-07T13:20:46.275Z,23.10
2023-06-07T13:23:13.568Z,22.40
2023-06-07T13:25:40.995Z,21.80
2023-06-07T13:28:07.884Z,21.30
2023-06-07T13:30:34.931Z,20.90
2023-06-07T13:33:01.895Z,20.70
2023-06-07T13:35:32.982Z,20.60
2023-06-07T13:38:02.186Z,20.60
2023-06-07T13:40:29.199Z,20.80
2023-06-07T13:42:56.233Z,21.00
2023-06-07T13:45:23.121Z,21.20
2023-06-07T13:47:50.400Z,21.40
2023-06-07T13:50:17.489Z,21.70
2023-06-07T13:52:44.521Z,21.90
2023-06-07T13:55:11.500Z,22.00
2023-06-07T13:57:38.527Z,22.30
2023-06-07T14:00:06.104Z,22.90
2023-06-07T14:02:33.445Z,23.80
2023-06-07T14:05:02.945Z,24.80
2023-06-07T14:07:30.192Z,25.80
2023-06-07T14:09:57.287Z,26.60
2023-06-07T14:12:24.360Z,27.30
2023-06-07T14:14:51.369Z,28.00
2023-06-07T14:17:18.417Z,28.50
2023-06-07T14:19:45.888Z,28.90
2023-06-07T14:22:12.917Z,28.70
2023-06-07T14:24:39.845Z,28.50
2023-06-07T14:27:08.292Z,28.60
2023-06-07T14:29:35.481Z,28.70
2023-06-07T14:32:02.521Z,29.10
2023-06-07T14:34:29.487Z,29.40
2023-06-07T14:36:56.505Z,29.30
2023-06-07T14:39:23.706Z,29.50
2023-06-07T14:41:50.775Z,29.80
2023-06-07T14:44:17.878Z,30.00
2023-06-07T14:46:44.722Z,30.30
2023-06-07T14:49:11.676Z,30.60
2023-06-07T14:51:38.704Z,30.90
2023-06-07T14:54:06.469Z,31.10
2023-06-07T14:56:33.826Z,31.20
2023-06-07T14:59:00.684Z,31.60
2023-06-07T15:01:27.719Z,31.70
2023-06-07T15:03:54.688Z,31.40
2023-06-07T15:06:21.699Z,31.20
2023-06-07T15:08:52.816Z,31.10
2023-06-07T15:11:19.807Z,31.00
2023-06-07T15:13:47.016Z,30.80
2023-06-07T15:16:14.073Z,30.20
2023-06-07T15:18:41.195Z,29.80
2023-06-07T15:21:08.125Z,29.40
2023-06-07T15:23:35.265Z,29.60
2023-06-07T15:26:02.346Z,30.30
2023-06-07T15:28:29.279Z,30.70
2023-06-07T15:30:56.214Z,31.10
2023-06-07T15:33:23.316Z,31.40
2023-06-07T15:35:50.209Z,31.50
2023-06-07T15:38:17.271Z,31.50
2023-06-07T15:40:44.248Z,31.50
2023-06-07T15:43:11.120Z,31.50
2023-06-07T15:45:38.183Z,31.70
2023-06-07T15:48:05.653Z,32.00
2023-06-07T15:50:33.107Z,32.10
2023-06-07T15:53:00.464Z,32.10
2023-06-07T15:55:29.145Z,32.20
2023-06-07T15:57:56.572Z,32.20
2023-06-07T16:00:37.039Z,32.20
2023-06-07T16:03:06.180Z,32.00
2023-06-07T16:05:33.248Z,31.60
2023-06-07T16:08:04.819Z,31.50
2023-06-07T16:10:37.598Z,31.50
2023-06-07T16:13:04.621Z,31.30
2023-06-07T16:15:31.820Z,31.20
2023-06-07T16:17:58.934Z,31.10
2023-06-07T16:20:25.911Z,31.00
2023-06-07T16:22:53.572Z,30.60
2023-06-07T16:25:20.698Z,30.00
2023-06-07T16:27:47.657Z,29.60
2023-06-07T16:30:14.708Z,29.10
2023-06-07T16:32:41.652Z,28.90
2023-06-07T16:35:08.676Z,28.60
2023-06-07T16:37:35.617Z,28.40
2023-06-07T16:40:02.789Z,28.10
2023-06-07T16:42:30.178Z,27.90
2023-06-07T16:44:58.425Z,27.70
2023-06-07T16:47:27.410Z,27.70
2023-06-07T16:49:54.533Z,27.60
2023-06-07T16:52:21.435Z,27.50
2023-06-07T16:54:48.805Z,27.30
2023-06-07T16:57:15.943Z,27.30
2023-06-07T16:59:42.887Z,26.90
2023-06-07T17:02:09.903Z,26.50
2023-06-07T17:04:36.949Z,26.30
2023-06-07T17:07:04.415Z,26.10
2023-06-07T17:09:31.514Z,25.90
2023-06-07T17:11:58.567Z,25.60
2023-06-07T17:14:25.500Z,25.50
2023-06-07T17:16:52.650Z,25.40
2023-06-07T17:19:19.928Z,25.20
2023-06-07T17:21:46.856Z,25.10
2023-06-07T17:24:15.452Z,25.10
2023-06-07T17:26:42.950Z,25.00
2023-06-07T17:29:27.394Z,25.00
2023-06-07T17:31:55.454Z,24.90
2023-06-07T17:34:22.622Z,24.70
2023-06-07T17:36:49.803Z,24.60
2023-06-07T17:39:16.873Z,24.60
2023-06-07T17:41:44.423Z,24.70
2023-06-07T17:44:11.561Z,24.70
2023-06-07T17:46:39.134Z,24.60
2023-06-07T17:49:06.244Z,24.60
2023-06-07T17:51:33.889Z,24.50
2023-06-07T17:54:03.711Z,24.40
2023-06-07T17:56:30.562Z,24.30
2023-06-07T17:58:57.607Z,24.20
2023-06-07T18:01:24.838Z,24.10
2023-06-07T18:03:56.209Z,24.00
2023-06-07T18:06:23.305Z,23.90
2023-06-07T18:08:51.630Z,23.70
2023-06-07T18:11:18.844Z,23.60
2023-06-07T18:13:45.914Z,23.50
2023-06-07T18:16:13.061Z,23.40
2023-06-07T18:18:39.982Z,23.30
2023-06-07T18:21:07.464Z,23.20
2023-06-07T18:23:34.426Z,23.10
2023-06-07T18:26:03.220Z,23.10
2023-06-07T18:28:30.275Z,23.00
2023-06-07T18:30:57.186Z,22.90
2023-06-07T18:33:24.501Z,22.80
2023-06-07T18:35:51.416Z,22.70
2023-06-07T18:38:18.450Z,22.60
2023-06-07T18:40:45.503Z,22.50
2023-06-07T18:43:12.694Z,22.40
2023-06-07T18:45:39.652Z,22.30
2023-06-07T18:48:06.884Z,22.20
2023-06-07T18:50:33.906Z,22.20
2023-06-07T18:53:03.182Z,22.20
2023-06-07T18:55:30.264Z,22.10
2023-06-07T18:57:57.301Z,21.90
2023-06-07T19:00:24.594Z,21.90
2023-06-07T19:02:51.991Z,21.80
2023-06-07T19:05:19.292Z,21.80
2023-06-07T19:07:46.332Z,21.70
2023-06-07T19:10:13.267Z,21.60
2023-06-07T19:12:40.428Z,21.50
2023-06-07T19:15:08.341Z,21.50
2023-06-07T19:17:36.136Z,21.30
2023-06-07T19:20:03.260Z,21.30
2023-06-07T19:22:30.160Z,21.20
2023-06-07T19:24:57.259Z,21.10
2023-06-07T19:27:24.318Z,21.00
2023-06-07T19:29:51.426Z,20.90
2023-06-07T19:32:18.344Z,20.90
2023-06-07T19:34:45.614Z,20.80
2023-06-07T19:37:13.132Z,20.70
2023-06-07T19:39:40.073Z,20.60
2023-06-07T19:42:12.460Z,20.60
2023-06-07T19:44:40.989Z,20.50
2023-06-07T19:47:08.791Z,20.40
2023-06-07T19:49:36.225Z,20.40
2023-06-07T19:52:04.048Z,20.30
2023-06-07T19:54:31.205Z,20.20
2023-06-07T19:56:58.024Z,20.20
2023-06-07T19:59:26.047Z,20.10
2023-06-07T20:01:55.336Z,20.00
2023-06-07T20:04:22.338Z,19.90
2023-06-07T20:06:49.469Z,20.00
2023-06-07T20:09:16.710Z,19.90
2023-06-07T20:11:43.567Z,19.90
2023-06-07T20:14:11.629Z,19.90
2023-06-07T20:16:38.621Z,19.80
2023-06-07T20:19:07.327Z,19.70
2023-06-07T20:21:38.449Z,19.70
2023-06-07T20:24:06.294Z,19.70
2023-06-07T20:26:33.231Z,19.60
2023-06-07T20:29:02.580Z,19.50
2023-06-07T20:31:32.258Z,19.50
2023-06-07T20:34:00.151Z,19.50
2023-06-07T20:36:27.348Z,19.50
2023-06-07T20:38:54.583Z,19.40
2023-06-07T20:41:22.214Z,19.40
2023-06-07T20:43:49.104Z,19.40
2023-06-07T20:46:15.991Z,19.30
2023-06-07T20:48:43.033Z,19.20
2023-06-07T20:51:11.071Z,19.20
2023-06-07T20:53:38.002Z,19.20
2023-06-07T20:56:05.249Z,19.20
2023-06-07T20:58:32.096Z,19.20
2023-06-07T21:00:59.302Z,19.20
2023-06-07T21:03:27.731Z,19.10
2023-06-07T21:05:54.714Z,19.10
2023-06-07T21:08:21.615Z,19.10
2023-06-07T21:10:49.808Z,19.00
2023-06-07T21:13:19.718Z,19.00
2023-06-07T21:15:46.794Z,18.90
2023-06-07T21:18:13.746Z,18.90
2023-06-07T21:20:41.198Z,18.90
2023-06-07T21:23:08.839Z,18.80
2023-06-07T21:25:36.842Z,18.80
2023-06-07T21:28:03.836Z,18.70
2023-06-07T21:30:31.864Z,18.60
2023-06-07T21:32:59.781Z,18.60
2023-06-07T21:35:26.728Z,18.60
2023-06-07T21:37:53.630Z,18.50
2023-06-07T21:40:20.763Z,18.50
2023-06-07T21:42:47.602Z,18.60
2023-06-07T21:45:14.584Z,18.50
2023-06-07T21:47:41.534Z,18.50
2023-06-07T21:50:09.272Z,18.50
2023-06-07T21:52:36.518Z,18.50
2023-06-07T21:55:03.571Z,18.40
2023-06-07T21:57:31.040Z,18.30
2023-06-07T21:59:58.216Z,18.30
2023-06-07T22:02:25.179Z,18.20
2023-06-07T22:04:52.641Z,18.20
2023-06-07T22:07:19.728Z,18.20
2023-06-07T22:09:48.239Z,18.10
2023-06-07T22:12:15.942Z,18.10
2023-06-07T22:14:44.339Z,18.00
2023-06-07T22:17:11.547Z,17.90
2023-06-07T22:19:39.268Z,18.00
2023-06-07T22:22:06.380Z,17.90
2023-06-07T22:24:33.208Z,17.90
2023-06-07T22:27:00.785Z,17.80
2023-06-07T22:29:27.712Z,17.80
2023-06-07T22:31:54.838Z,17.80
2023-06-07T22:34:22.547Z,17.70
2023-06-07T22:36:52.512Z,17.70
2023-06-07T22:39:19.415Z,17.60
2023-06-07T22:41:46.396Z,17.60
2023-06-07T22:44:13.947Z,17.60
2023-06-07T22:46:41.321Z,17.50
2023-06-07T22:49:09.835Z,17.50
2023-06-07T22:51:42.289Z,17.40
2023-06-07T22:54:09.532Z,17.40
2023-06-07T22:56:36.524Z,17.40
2023-06-07T22:59:03.537Z,17.30
2023-06-07T23:01:30.815Z,17.30
2023-06-07T23:03:58.318Z,17.30
2023-06-07T23:06:35.628Z,17.20
2023-06-07T23:09:03.669Z,17.20
2023-06-07T23:11:31.564Z,17.10
2023-06-07T23:13:58.678Z,17.10
2023-06-07T23:16:27.480Z,17.00
2023-06-07T23:18:54.399Z,17.10
2023-06-07T23:21:21.514Z,17.00
2023-06-07T23:23:51.263Z,17.00
2023-06-07T23:26:18.474Z,16.90
2023-06-07T23:28:45.657Z,16.90
2023-06-07T23:31:12.532Z,16.80
2023-06-07T23:33:39.430Z,16.70
2023-06-07T23:36:07.155Z,16.70
2023-06-07T23:38:35.153Z,16.60
2023-06-07T23:41:02.379Z,16.60
2023-06-07T23:43:29.375Z,16.60
2023-06-07T23:45:56.353Z,16.60
2023-06-07T23:48:26.140Z,16.50
2023-06-07T23:50:53.273Z,16.50
2023-06-07T23:53:20.645Z,16.50
2023-06-07T23:55:47.790Z,16.40
2023-06-07T23:58:14.688Z,16.40
